createdAt,value
2023-01-11T00:01:39.214Z,99218.16
2023-01-11T00:04:30.499Z,99215.63
2023-01-11T00:07:17.458Z,99203.63
2023-01-11T00:10:04.937Z,99206.19
2023-01-11T00:12:51.397Z,99212.31
2023-01-11T00:15:38.535Z,99197.69
2023-01-11T00:18:24.959Z,99201.06
2023-01-11T00:21:11.298Z,99196.97
2023-01-11T00:23:57.896Z,99196.97
2023-01-11T00:26:44.577Z,99191.81
2023-01-11T00:29:30.970Z,99176.34
2023-01-11T00:32:17.318Z,99171.06
2023-01-11T00:35:04.162Z,99178.91
2023-01-11T00:37:51.912Z,99170.16
2023-01-11T00:40:38.512Z,99160.03
2023-01-11T00:43:43.357Z,99159.13
2023-01-11T00:46:48.576Z,99159.22
2023-01-11T00:49:35.403Z,99141.13
2023-01-11T00:52:22.507Z,99137.72
2023-01-11T00:55:09.932Z,99151.53
2023-01-11T00:57:56.201Z,99143.81
2023-01-11T01:00:43.038Z,99137.78
2023-01-11T01:03:29.386Z,99127.47
2023-01-11T01:06:15.859Z,99121.41
2023-01-11T01:09:02.435Z,99130.09
2023-01-11T01:11:48.962Z,99124.94
2023-01-11T01:14:36.305Z,99130.91
2023-01-11T01:17:22.964Z,99118.94
2023-01-11T01:20:10.242Z,99118.84
2023-01-11T01:22:56.640Z,99123.16
2023-01-11T01:25:43.114Z,99130.91
2023-01-11T01:28:29.786Z,99129.13
2023-01-11T01:31:17.341Z,99120.66
2023-01-11T01:34:03.692Z,99118.75
2023-01-11T01:36:50.226Z,99124.78
2023-01-11T01:39:36.978Z,99129.09
2023-01-11T01:42:24.203Z,99113.50
2023-01-11T01:45:27.633Z,99115.06
2023-01-11T01:48:18.691Z,99102.06
2023-01-11T01:51:07.051Z,99104.88
2023-01-11T01:53:57.504Z,99106.38
2023-01-11T01:56:52.136Z,99107.31
2023-01-11T01:59:38.663Z,99093.63
2023-01-11T02:02:26.435Z,99095.19
2023-01-11T02:05:15.484Z,99100.47
2023-01-11T02:08:08.304Z,99091.97
2023-01-11T02:10:55.784Z,99083.38
2023-01-11T02:13:46.196Z,99083.53
2023-01-11T02:16:33.321Z,99077.56
2023-01-11T02:19:40.716Z,99071.59
2023-01-11T02:22:49.285Z,99074.13
2023-01-11T02:26:00.492Z,99068.25
2023-01-11T02:29:10.607Z,99063.16
2023-01-11T02:32:13.837Z,99070.88
2023-01-11T02:35:11.470Z,99070.09
2023-01-11T02:38:05.340Z,99063.19
2023-01-11T02:40:59.108Z,99074.34
2023-01-11T02:44:20.708Z,99081.28
2023-01-11T02:47:17.790Z,99083.91
2023-01-11T02:50:29.745Z,99075.34
2023-01-11T02:53:57.221Z,99069.41
2023-01-11T02:56:47.357Z,99066.81
2023-01-11T02:59:35.459Z,99061.63
2023-01-11T03:02:21.969Z,99051.34
2023-01-11T03:05:15.451Z,99043.66
2023-01-11T03:08:24.421Z,99039.31
2023-01-11T03:11:37.502Z,99034.28
2023-01-11T03:14:30.112Z,99044.63
2023-01-11T03:17:41.399Z,99050.59
2023-01-11T03:20:33.233Z,99056.59
2023-01-11T03:23:31.678Z,99055.78
2023-01-11T03:26:29.326Z,99049.72
2023-01-11T03:29:27.297Z,99041.19
2023-01-11T03:32:21.045Z,99038.53
2023-01-11T03:35:30.457Z,99029.94
2023-01-11T03:38:26.625Z,99035.13
2023-01-11T03:41:22.355Z,99031.59
2023-01-11T03:44:12.898Z,99033.38
2023-01-11T03:47:04.820Z,99023.09
2023-01-11T03:49:56.209Z,99028.25
2023-01-11T03:52:44.473Z,99023.22
2023-01-11T03:55:37.712Z,99031.78
2023-01-11T03:58:26.957Z,99019.72
2023-01-11T04:01:13.648Z,98989.63
2023-01-11T04:04:00.274Z,99006.84
2023-01-11T04:06:46.800Z,99006.00
2023-01-11T04:09:33.280Z,98999.22
2023-01-11T04:12:19.925Z,98992.34
2023-01-11T04:15:06.873Z,98985.47
2023-01-11T04:17:53.310Z,98997.47
2023-01-11T04:20:41.086Z,98991.44
2023-01-11T04:23:27.463Z,98988.06
2023-01-11T04:26:14.181Z,98985.59
2023-01-11T04:29:00.460Z,98983.03
2023-01-11T04:31:47.042Z,98979.59
2023-01-11T04:34:33.653Z,98970.13
2023-01-11T04:37:20.359Z,98970.13
2023-01-11T04:40:07.712Z,98969.25
2023-01-11T04:42:54.002Z,98964.97
2023-01-11T04:45:40.304Z,98946.88
2023-01-11T04:48:27.019Z,98959.75
2023-01-11T04:51:13.279Z,98959.84
2023-01-11T04:54:00.094Z,98962.44
2023-01-11T04:56:46.604Z,98966.72
2023-01-11T04:59:33.400Z,98971.06
2023-01-11T05:02:19.860Z,98965.81
2023-01-11T05:05:07.909Z,98972.75
2023-01-11T05:07:55.714Z,98969.22
2023-01-11T05:10:42.198Z,98970.19
2023-01-11T05:13:45.080Z,98968.50
2023-01-11T05:16:31.886Z,98968.28
2023-01-11T05:19:18.678Z,98957.84
2023-01-11T05:22:05.302Z,98967.28
2023-01-11T05:24:51.559Z,98975.69
2023-01-11T05:27:38.178Z,98968.56
2023-01-11T05:30:24.572Z,98959.78
2023-01-11T05:33:11.119Z,98968.34
2023-01-11T05:36:05.249Z,98961.50
2023-01-11T05:38:53.600Z,98961.28
2023-01-11T05:41:40.170Z,98960.38
2023-01-11T05:44:45.009Z,98956.91
2023-01-11T05:47:31.506Z,98953.34
2023-01-11T05:50:18.117Z,98942.41
2023-01-11T05:53:07.066Z,98923.28
2023-01-11T05:55:55.185Z,98929.31
2023-01-11T05:58:41.731Z,98925.06
2023-01-11T06:01:28.141Z,98925.09
2023-01-11T06:04:14.648Z,98914.03
2023-01-11T06:07:01.291Z,98911.38
2023-01-11T06:09:47.929Z,98917.38
2023-01-11T06:12:34.731Z,98905.22
2023-01-11T06:15:23.976Z,98904.31
2023-01-11T06:18:10.203Z,98908.72
2023-01-11T06:20:57.775Z,98910.56
2023-01-11T06:23:47.089Z,98910.56
2023-01-11T06:26:33.737Z,98885.66
2023-01-11T06:29:20.399Z,98898.78
2023-01-11T06:32:08.715Z,98892.06
2023-01-11T06:34:55.286Z,98882.53
2023-01-11T06:37:42.102Z,98899.91
2023-01-11T06:40:29.090Z,98899.84
2023-01-11T06:43:15.752Z,98896.50
2023-01-11T06:46:02.591Z,98902.34
2023-01-11T06:48:49.413Z,98904.94
2023-01-11T06:51:36.075Z,98882.84
2023-01-11T06:54:25.582Z,98889.75
2023-01-11T06:57:12.668Z,98889.84
2023-01-11T06:59:59.847Z,98888.22
2023-01-11T07:02:46.767Z,98885.75
2023-01-11T07:05:35.340Z,98874.63
2023-01-11T07:08:21.697Z,98875.59
2023-01-11T07:11:08.775Z,98873.84
2023-01-11T07:13:55.163Z,98865.28
2023-01-11T07:16:41.478Z,98870.50
2023-01-11T07:19:28.093Z,98868.81
2023-01-11T07:22:16.043Z,98867.16
2023-01-11T07:25:04.481Z,98863.78
2023-01-11T07:27:59.061Z,98874.09
2023-01-11T07:30:57.531Z,98863.75
2023-01-11T07:33:44.835Z,98876.69
2023-01-11T07:36:31.368Z,98873.25
2023-01-11T07:39:18.172Z,98881.00
2023-01-11T07:42:23.783Z,98873.25
2023-01-11T07:45:11.630Z,98875.00
2023-01-11T07:47:57.977Z,98875.91
2023-01-11T07:50:45.408Z,98876.78
2023-01-11T07:53:32.233Z,98881.19
2023-01-11T07:56:18.673Z,98875.19
2023-01-11T07:59:05.384Z,98870.03
2023-01-11T08:01:52.109Z,98870.06
2023-01-11T08:04:38.784Z,98860.59
2023-01-11T08:07:25.361Z,98876.13
2023-01-11T08:10:11.845Z,98866.66
2023-01-11T08:13:16.980Z,98858.06
2023-01-11T08:16:03.847Z,98860.66
2023-01-11T08:19:01.694Z,98859.78
2023-01-11T08:21:49.599Z,98857.22
2023-01-11T08:24:36.445Z,98854.63
2023-01-11T08:27:23.238Z,98866.69
2023-01-11T08:30:11.006Z,98862.38
2023-01-11T08:32:57.725Z,98831.38
2023-01-11T08:35:44.415Z,98838.25
2023-01-11T08:38:30.773Z,98849.44
2023-01-11T08:41:17.499Z,98854.59
2023-01-11T08:44:04.091Z,98866.69
2023-01-11T08:46:52.553Z,98874.41
2023-01-11T08:49:42.982Z,98862.38
2023-01-11T08:52:29.668Z,98858.06
2023-01-11T08:55:22.048Z,98859.78
2023-01-11T08:58:08.813Z,98858.91
2023-01-11T09:00:57.909Z,98862.31
2023-01-11T09:03:44.228Z,98864.94
2023-01-11T09:06:30.836Z,98868.34
2023-01-11T09:09:17.593Z,98864.06
2023-01-11T09:12:05.842Z,98862.34
2023-01-11T09:14:52.715Z,98865.78
2023-01-11T09:17:39.141Z,98867.50
2023-01-11T09:20:25.682Z,98867.47
2023-01-11T09:23:12.343Z,98869.22
2023-01-11T09:25:59.032Z,98871.78
2023-01-11T09:28:46.010Z,98870.06
2023-01-11T09:31:32.890Z,98862.34
2023-01-11T09:34:21.003Z,98878.72
2023-01-11T09:37:07.430Z,98872.66
2023-01-11T09:39:53.803Z,98869.22
2023-01-11T09:42:43.062Z,98869.22
2023-01-11T09:45:33.948Z,98864.03
2023-01-11T09:48:37.853Z,98878.66
2023-01-11T09:51:33.231Z,98870.91
2023-01-11T09:54:27.269Z,98863.16
2023-01-11T09:57:38.962Z,98868.31
2023-01-11T10:00:48.515Z,98870.91
2023-01-11T10:03:34.805Z,98866.56
2023-01-11T10:06:52.366Z,98863.97
2023-01-11T10:18:37.597Z,98867.38
2023-01-11T10:20:35.462Z,98873.44
2023-01-11T10:23:42.116Z,98873.44
2023-01-11T10:26:37.197Z,98869.97
2023-01-11T10:29:50.693Z,98877.72
2023-01-11T10:32:54.031Z,98864.78
2023-01-11T10:36:15.954Z,98870.84
2023-01-11T10:39:55.363Z,98864.81
2023-01-11T10:43:12.963Z,98865.66
2023-01-11T10:49:09.581Z,98864.78
2023-01-11T10:52:03.810Z,98872.53
2023-01-11T10:54:54.858Z,98867.34
2023-01-11T10:57:59.433Z,98871.69
2023-01-11T11:01:13.252Z,98867.38
2023-01-11T11:04:18.475Z,98868.19
2023-01-11T11:07:34.878Z,98870.75
2023-01-11T11:10:52.862Z,98860.41
2023-01-11T11:13:39.930Z,98867.25
2023-01-11T11:16:52.938Z,98856.03
2023-01-11T11:19:41.147Z,98856.88
2023-01-11T11:22:28.607Z,98843.88
2023-01-11T11:25:29.893Z,98847.25
2023-01-11T11:28:22.406Z,98849.81
2023-01-11T11:31:11.253Z,98851.53
2023-01-11T11:34:07.018Z,98839.47
2023-01-11T11:36:55.455Z,98848.06
2023-01-11T11:39:42.297Z,98839.44
2023-01-11T11:42:29.016Z,98848.94
2023-01-11T11:45:22.764Z,98845.47
2023-01-11T11:48:10.713Z,98847.22
2023-01-11T11:51:00.748Z,98837.69
2023-01-11T11:53:56.272Z,98841.19
2023-01-11T11:56:42.740Z,98826.53
2023-01-11T11:59:32.748Z,98824.88
2023-01-11T12:02:25.511Z,98833.50
2023-01-11T12:05:12.233Z,98838.69
2023-01-11T12:07:59.876Z,98830.09
2023-01-11T12:10:51.321Z,98834.34
2023-01-11T12:13:39.852Z,98834.38
2023-01-11T12:16:31.124Z,98828.41
2023-01-11T12:19:34.382Z,98833.53
2023-01-11T12:22:24.031Z,98833.53
2023-01-11T12:25:15.131Z,98855.13
2023-01-11T12:28:14.049Z,98838.75
2023-01-11T12:31:19.125Z,98854.31
2023-01-11T12:34:39.171Z,98856.00
2023-01-11T12:37:34.458Z,98846.47
2023-01-11T12:40:34.464Z,98848.22
2023-01-11T12:43:21.163Z,98839.66
2023-01-11T12:46:22.993Z,98847.44
2023-01-11T12:49:38.904Z,98851.78
2023-01-11T12:52:31.601Z,98848.34
2023-01-11T12:55:34.989Z,98850.91
2023-01-11T12:58:38.940Z,98854.38
2023-01-11T13:02:01.087Z,98854.34
2023-01-11T13:04:58.390Z,98858.66
2023-01-11T13:08:04.113Z,98865.59
2023-01-11T13:11:10.578Z,98854.34
2023-01-11T13:14:06.439Z,98864.72
2023-01-11T13:17:01.751Z,98875.06
2023-01-11T13:20:16.972Z,98870.75
2023-01-11T13:23:12.049Z,98874.22
2023-01-11T13:26:07.225Z,98883.72
2023-01-11T13:29:11.515Z,98884.63
2023-01-11T13:32:03.442Z,98894.16
2023-01-11T13:34:53.009Z,98901.06
2023-01-11T13:38:01.446Z,98894.19
2023-01-11T13:40:55.160Z,98882.13
2023-01-11T13:43:55.527Z,98895.94
2023-01-11T13:47:11.611Z,98896.81
2023-01-11T13:50:19.877Z,98903.69
2023-01-11T13:53:16.048Z,98903.72
2023-01-11T13:56:18.225Z,98924.38
2023-01-11T13:59:23.031Z,98929.53
2023-01-11T14:02:28.306Z,98929.53
2023-01-11T14:05:24.141Z,98938.16
2023-01-11T14:08:40.650Z,98938.16
2023-01-11T14:11:47.954Z,98945.06
2023-01-11T14:14:41.127Z,98943.31
2023-01-11T14:17:48.730Z,98923.50
2023-01-11T14:20:51.575Z,98945.03
2023-01-11T14:23:56.780Z,98946.72
2023-01-11T14:27:06.438Z,98955.38
2023-01-11T14:30:34.243Z,98975.19
2023-01-11T14:33:30.845Z,98976.94
2023-01-11T14:36:32.005Z,98984.66
2023-01-11T14:39:18.453Z,98982.09
2023-01-11T14:42:32.099Z,98983.81
2023-01-11T14:45:23.797Z,98987.28
2023-01-11T14:48:42.558Z,98994.16
2023-01-11T14:51:46.262Z,98995.88
2023-01-11T14:54:40.593Z,99007.03
2023-01-11T14:57:54.959Z,99011.34
2023-01-11T15:00:44.262Z,99016.53
2023-01-11T15:03:37.110Z,99016.53
2023-01-11T15:06:24.238Z,99010.47
2023-01-11T15:09:47.292Z,99030.28
2023-01-11T15:12:39.673Z,99031.13
2023-01-11T15:15:52.023Z,99037.16
2023-01-11T15:18:45.859Z,99037.16
2023-01-11T15:21:41.529Z,99049.16
2023-01-11T15:24:31.759Z,99054.28
2023-01-11T15:27:27.714Z,99065.47
2023-01-11T15:30:29.901Z,99062.00
2023-01-11T15:33:19.592Z,99054.22
2023-01-11T15:36:11.379Z,99046.47
2023-01-11T15:39:05.517Z,99050.72
2023-01-11T15:42:18.143Z,99062.75
2023-01-11T15:45:24.718Z,99066.19
2023-01-11T15:48:26.605Z,99065.31
2023-01-11T15:51:44.872Z,99063.59
2023-01-11T15:54:56.395Z,99067.00
2023-01-11T15:58:21.072Z,99074.75
2023-01-11T16:01:22.345Z,99078.97
2023-01-11T16:04:56.391Z,99093.66
2023-01-11T16:08:10.761Z,99097.94
2023-01-11T16:11:08.580Z,99103.97
2023-01-11T16:14:26.857Z,99109.06
2023-01-11T16:17:18.615Z,99122.88
2023-01-11T16:20:20.571Z,99114.22
2023-01-11T16:23:07.627Z,99124.56
2023-01-11T16:25:58.935Z,99146.91
2023-01-11T16:28:56.084Z,99145.19
2023-01-11T16:32:04.771Z,99152.03
2023-01-11T16:34:53.596Z,99158.88
2023-01-11T16:37:45.868Z,99173.47
2023-01-11T16:40:35.919Z,99173.44
2023-01-11T16:43:33.415Z,99176.88
2023-01-11T16:46:42.736Z,99184.53
2023-01-11T16:49:28.990Z,99190.59
2023-01-11T16:52:37.781Z,99187.09
2023-01-11T16:55:50.663Z,99200.00
2023-01-11T16:58:38.809Z,99216.34
2023-01-11T17:01:25.383Z,99220.75
2023-01-11T17:04:28.132Z,99219.00
2023-01-11T17:07:20.874Z,99218.31
2023-01-11T17:10:22.611Z,99233.81
2023-01-11T17:13:44.443Z,99262.25
2023-01-11T17:21:26.791Z,99259.00
2023-01-11T17:24:13.966Z,99275.88
2023-01-11T17:27:02.598Z,99281.56
2023-01-11T17:29:51.939Z,99289.13
2023-01-11T17:32:42.752Z,99287.97
2023-01-11T17:35:33.889Z,99291.38
2023-01-11T17:38:24.272Z,99278.28
2023-01-11T17:41:31.569Z,99286.78
2023-01-11T17:44:41.669Z,99299.66
2023-01-11T17:47:29.831Z,99307.41
2023-01-11T17:50:25.187Z,99321.16
2023-01-11T17:53:21.189Z,99322.03
2023-01-11T17:56:38.332Z,99321.19
2023-01-11T17:59:27.094Z,99322.84
2023-01-11T18:02:14.829Z,99323.59
2023-01-11T18:05:01.944Z,99323.44
2023-01-11T18:07:53.604Z,99332.81
2023-01-11T18:10:40.759Z,99337.00
2023-01-11T18:13:34.760Z,99333.34
2023-01-11T18:16:22.626Z,99319.50
2023-01-11T18:19:38.953Z,99325.44
2023-01-11T18:22:32.480Z,99323.56
2023-01-11T18:25:25.657Z,99325.16
2023-01-11T18:28:12.235Z,99337.00
2023-01-11T18:31:01.885Z,99334.41
2023-01-11T18:33:48.507Z,99327.50
2023-01-11T18:36:34.798Z,99329.97
2023-01-11T18:39:21.126Z,99328.13
2023-01-11T18:42:08.582Z,99335.66
2023-01-11T18:44:55.336Z,99336.53
2023-01-11T18:47:43.826Z,99333.88
2023-01-11T18:50:30.061Z,99350.34
2023-01-11T18:53:17.569Z,99346.19
2023-01-11T18:56:04.473Z,99348.84
2023-01-11T18:58:51.472Z,99354.00
2023-01-11T19:01:52.810Z,99352.06
2023-01-11T19:04:45.651Z,99353.94
2023-01-11T19:07:32.042Z,99358.97
2023-01-11T19:10:21.496Z,99366.50
2023-01-11T19:13:07.688Z,99325.78
2023-01-11T19:15:53.992Z,99375.00
2023-01-11T19:18:40.461Z,99379.81
2023-01-11T19:21:26.680Z,99386.34
2023-01-11T19:24:13.041Z,99392.72
2023-01-11T19:27:00.496Z,99401.63
2023-01-11T19:29:47.608Z,99415.44
2023-01-11T19:32:35.164Z,99402.81
2023-01-11T19:35:23.997Z,99405.53
2023-01-11T19:38:11.448Z,99406.72
2023-01-11T19:41:05.380Z,99414.28
2023-01-11T19:43:51.943Z,99402.06
2023-01-11T19:46:38.379Z,99398.69
2023-01-11T19:49:25.197Z,99404.00
2023-01-11T19:52:14.226Z,99391.16
2023-01-11T19:55:00.958Z,99394.00
2023-01-11T19:57:47.548Z,99392.19
2023-01-11T20:00:35.269Z,99406.88
2023-01-11T20:03:22.365Z,99389.66
2023-01-11T20:06:09.434Z,99394.81
2023-01-11T20:08:55.996Z,99398.22
2023-01-11T20:11:42.454Z,99393.06
2023-01-11T20:14:29.117Z,99398.06
2023-01-11T20:17:20.923Z,99400.47
2023-01-11T20:20:07.995Z,99395.88
2023-01-11T20:22:54.665Z,99397.47
2023-01-11T20:25:41.388Z,99416.19
2023-01-11T20:28:30.708Z,99412.97
2023-01-11T20:31:18.717Z,99430.59
2023-01-11T20:34:10.525Z,99421.50
2023-01-11T20:36:57.378Z,99424.09
2023-01-11T20:39:43.814Z,99418.03
2023-01-11T20:42:31.346Z,99420.09
2023-01-11T20:45:21.500Z,99416.81
2023-01-11T20:48:08.145Z,99418.47
2023-01-11T20:50:54.878Z,99408.41
2023-01-11T20:53:41.617Z,99420.47
2023-01-11T20:56:28.263Z,99412.50
2023-01-11T20:59:19.137Z,99410.97
2023-01-11T21:02:07.899Z,99415.44
2023-01-11T21:04:55.450Z,99408.34
2023-01-11T21:07:43.516Z,99423.88
2023-01-11T21:10:30.321Z,99421.91
2023-01-11T21:13:16.930Z,99421.06
2023-01-11T21:16:13.218Z,99438.19
2023-01-11T21:19:04.193Z,99435.78
2023-01-11T21:21:51.339Z,99427.09
2023-01-11T21:24:41.285Z,99429.84
2023-01-11T21:27:28.479Z,99422.97
2023-01-11T21:30:16.733Z,99432.34
2023-01-11T21:33:03.472Z,99422.00
2023-01-11T21:35:50.182Z,99409.69
2023-01-11T21:38:37.166Z,99419.97
2023-01-11T21:41:48.122Z,99435.38
2023-01-11T21:44:34.662Z,99417.94
2023-01-11T21:47:22.188Z,99423.09
2023-01-11T21:50:09.363Z,99427.25
2023-01-11T21:52:55.733Z,99414.41
2023-01-11T21:55:42.243Z,99391.97
2023-01-11T21:58:28.647Z,99403.97
2023-01-11T22:01:15.766Z,99394.88
2023-01-11T22:04:10.643Z,99407.81
2023-01-11T22:06:58.675Z,99407.88
2023-01-11T22:10:03.449Z,99431.88
2023-01-11T22:12:50.870Z,99431.88
2023-01-11T22:15:37.449Z,99418.25
2023-01-11T22:18:23.730Z,99418.31
2023-01-11T22:21:18.523Z,99433.84
2023-01-11T22:24:06.322Z,99420.03
2023-01-11T22:26:53.971Z,99421.53
2023-01-11T22:29:43.167Z,99430.19
2023-01-11T22:32:31.382Z,99421.53
2023-01-11T22:35:22.623Z,99426.03
2023-01-11T22:38:09.103Z,99434.63
2023-01-11T22:40:59.917Z,99432.34
2023-01-11T22:43:46.608Z,99442.31
2023-01-11T22:46:32.931Z,99420.03
2023-01-11T22:49:19.684Z,99421.69
2023-01-11T22:52:06.687Z,99413.16
2023-01-11T22:54:53.439Z,99416.53
2023-01-11T22:57:40.140Z,99426.97
2023-01-11T23:00:26.731Z,99425.28
2023-01-11T23:03:14.795Z,99420.09
2023-01-11T23:06:01.468Z,99415.13
2023-01-11T23:08:47.853Z,99416.81
2023-01-11T23:11:56.635Z,99416.63
2023-01-11T23:14:42.964Z,99426.03
2023-01-11T23:17:29.402Z,99426.66
2023-01-11T23:20:16.423Z,99425.66
2023-01-11T23:23:02.744Z,99411.16
2023-01-11T23:25:54.329Z,99403.25
2023-01-11T23:28:40.689Z,99414.41
2023-01-11T23:31:29.413Z,99404.81
2023-01-11T23:34:16.214Z,99398.66
2023-01-11T23:37:02.803Z,99392.66
2023-01-11T23:39:49.063Z,99408.78
2023-01-11T23:42:37.088Z,99403.38
2023-01-11T23:45:23.350Z,99414.19
2023-01-11T23:48:09.714Z,99420.75
2023-01-11T23:51:03.625Z,99425.28
2023-01-11T23:53:50.329Z,99422.81
2023-01-11T23:56:37.176Z,99425.19
2023-01-11T23:59:24.081Z,99424.25
